createdAt,value
2017-10-06T00:01:15.389Z,90.10
2017-10-06T00:03:43.701Z,90.00
2017-10-06T00:06:12.048Z,90.10
2017-10-06T00:08:40.388Z,90.10
2017-10-06T00:11:09.333Z,90.10
2017-10-06T00:13:37.668Z,90.20
2017-10-06T00:16:05.989Z,90.10
2017-10-06T00:18:35.603Z,90.10
2017-10-06T00:21:05.187Z,90.10
2017-10-06T00:23:33.533Z,89.90
2017-10-06T00:26:01.856Z,90.20
2017-10-06T00:28:30.226Z,90.30
2017-10-06T00:30:58.536Z,90.20
2017-10-06T00:33:28.704Z,90.20
2017-10-06T00:35:57.011Z,90.20
2017-10-06T00:38:25.376Z,90.20
2017-10-06T00:40:53.720Z,90.30
2017-10-06T00:43:22.071Z,90.20
2017-10-06T00:45:50.413Z,90.20
2017-10-06T00:48:18.935Z,90.20
2017-10-06T00:50:46.499Z,90.20
2017-10-06T00:53:14.866Z,90.20
2017-10-06T00:55:43.313Z,90.20
2017-10-06T00:58:11.790Z,90.10
2017-10-06T01:00:40.220Z,90.00
2017-10-06T01:03:08.575Z,90.00
2017-10-06T01:05:36.883Z,90.10
2017-10-06T01:08:05.393Z,90.10
2017-10-06T01:10:34.633Z,90.20
2017-10-06T01:13:03.108Z,90.20
2017-10-06T01:15:31.556Z,90.20
2017-10-06T01:17:59.959Z,90.20
2017-10-06T01:20:28.267Z,90.20
2017-10-06T01:22:56.663Z,90.20
2017-10-06T01:25:24.967Z,90.20
2017-10-06T01:27:53.334Z,90.20
2017-10-06T01:30:21.671Z,90.10
2017-10-06T01:32:50.044Z,90.10
2017-10-06T01:35:18.372Z,90.20
2017-10-06T01:37:46.747Z,90.10
2017-10-06T01:40:15.104Z,90.00
2017-10-06T01:42:43.459Z,90.30
2017-10-06T01:45:11.814Z,89.90
2017-10-06T01:47:40.165Z,89.80
2017-10-06T01:50:09.901Z,90.20
2017-10-06T01:52:39.383Z,90.00
2017-10-06T01:55:07.774Z,89.90
2017-10-06T01:57:36.107Z,89.90
2017-10-06T02:00:05.188Z,90.00
2017-10-06T02:02:33.619Z,90.00
2017-10-06T02:05:01.977Z,90.00
2017-10-06T02:07:30.506Z,90.10
2017-10-06T02:09:58.844Z,90.10
2017-10-06T02:12:26.491Z,90.10
2017-10-06T02:14:54.831Z,90.00
2017-10-06T02:17:23.147Z,90.00
2017-10-06T02:19:51.520Z,90.10
2017-10-06T02:22:20.016Z,90.10
2017-10-06T02:24:48.432Z,90.10
2017-10-06T02:27:16.749Z,90.10
2017-10-06T02:29:45.168Z,90.10
2017-10-06T02:32:13.493Z,90.20
2017-10-06T02:34:41.831Z,90.20
2017-10-06T02:37:10.176Z,90.20
2017-10-06T02:39:38.544Z,90.30
2017-10-06T02:42:06.880Z,90.40
2017-10-06T02:44:35.255Z,90.40
2017-10-06T02:47:03.596Z,90.50
2017-10-06T02:49:31.920Z,90.50
2017-10-06T02:52:00.240Z,90.60
2017-10-06T02:54:28.696Z,90.70
2017-10-06T02:56:57.019Z,90.60
2017-10-06T02:59:25.412Z,90.60
2017-10-06T03:01:53.733Z,90.60
2017-10-06T03:04:22.073Z,90.60
2017-10-06T03:06:50.393Z,90.70
2017-10-06T03:09:19.763Z,90.80
2017-10-06T03:11:48.076Z,90.90
2017-10-06T03:14:16.395Z,90.90
2017-10-06T03:16:44.744Z,91.00
2017-10-06T03:19:14.067Z,91.00
2017-10-06T03:21:42.407Z,91.00
2017-10-06T03:24:10.720Z,91.00
2017-10-06T03:26:40.323Z,91.00
2017-10-06T03:29:08.659Z,91.10
2017-10-06T03:31:36.996Z,91.10
2017-10-06T03:34:05.321Z,91.20
2017-10-06T03:36:33.657Z,91.00
2017-10-06T03:39:02.049Z,91.10
2017-10-06T03:41:30.384Z,91.10
2017-10-06T03:43:58.852Z,91.00
2017-10-06T03:46:27.177Z,91.30
2017-10-06T03:48:55.563Z,90.90
2017-10-06T03:51:23.912Z,90.80
2017-10-06T03:53:52.269Z,90.70
2017-10-06T03:56:20.584Z,90.70
2017-10-06T03:58:48.976Z,90.70
2017-10-06T04:01:17.305Z,90.60
2017-10-06T04:03:45.792Z,90.60
2017-10-06T04:06:14.120Z,90.50
2017-10-06T04:08:42.538Z,90.40
2017-10-06T04:11:10.875Z,90.40
2017-10-06T04:13:40.528Z,90.30
2017-10-06T04:16:10.159Z,90.30
2017-10-06T04:18:40.528Z,90.20
2017-10-06T04:21:10.207Z,90.20
2017-10-06T04:23:38.775Z,90.10
2017-10-06T04:26:07.128Z,90.10
2017-10-06T04:28:35.499Z,90.00
2017-10-06T04:31:04.816Z,90.00
2017-10-06T04:33:34.490Z,90.10
2017-10-06T04:36:03.794Z,90.10
2017-10-06T04:38:32.320Z,90.00
2017-10-06T04:41:00.640Z,90.00
2017-10-06T04:43:29.042Z,90.00
2017-10-06T04:45:57.388Z,90.00
2017-10-06T04:48:27.801Z,89.90
2017-10-06T04:50:56.112Z,90.00
2017-10-06T04:53:23.743Z,90.00
2017-10-06T04:55:52.071Z,90.20
2017-10-06T04:58:20.444Z,90.20
2017-10-06T05:00:48.901Z,90.20
2017-10-06T05:03:17.255Z,90.20
2017-10-06T05:05:45.584Z,90.20
2017-10-06T05:08:13.967Z,90.00
2017-10-06T05:10:42.299Z,90.10
2017-10-06T05:13:10.713Z,90.00
2017-10-06T05:15:40.557Z,89.70
2017-10-06T05:18:10.107Z,89.70
2017-10-06T05:20:39.426Z,89.50
2017-10-06T05:23:08.970Z,89.40
2017-10-06T05:25:38.086Z,89.40
2017-10-06T05:28:06.462Z,89.40
2017-10-06T05:30:34.966Z,89.50
2017-10-06T05:33:04.232Z,89.40
2017-10-06T05:35:33.160Z,89.30
2017-10-06T05:38:01.496Z,89.20
2017-10-06T05:40:30.841Z,88.90
2017-10-06T05:42:59.180Z,88.90
2017-10-06T05:45:27.547Z,89.00
2017-10-06T05:47:55.884Z,89.10
2017-10-06T05:50:24.251Z,89.10
2017-10-06T05:52:52.564Z,89.20
2017-10-06T05:55:20.971Z,89.30
2017-10-06T05:57:49.291Z,89.30
2017-10-06T06:00:17.692Z,89.40
2017-10-06T06:02:46.011Z,89.40
2017-10-06T06:05:14.379Z,89.40
2017-10-06T06:07:42.700Z,89.40
2017-10-06T06:10:11.131Z,89.70
2017-10-06T06:12:40.124Z,89.80
2017-10-06T06:15:09.468Z,89.80
2017-10-06T06:17:39.157Z,90.00
2017-10-06T06:20:08.234Z,90.00
2017-10-06T06:22:36.566Z,89.90
2017-10-06T06:25:04.940Z,89.80
2017-10-06T06:27:34.173Z,89.50
2017-10-06T06:30:03.279Z,89.30
2017-10-06T06:32:31.680Z,89.30
2017-10-06T06:34:59.991Z,89.30
2017-10-06T06:37:28.380Z,89.20
2017-10-06T06:39:56.691Z,89.00
2017-10-06T06:42:25.095Z,89.00
2017-10-06T06:44:53.408Z,88.80
2017-10-06T06:47:21.819Z,88.70
2017-10-06T06:49:50.136Z,88.50
2017-10-06T06:52:18.501Z,88.20
2017-10-06T06:54:46.840Z,87.30
2017-10-06T06:57:15.252Z,86.70
2017-10-06T06:59:43.592Z,86.70
2017-10-06T07:02:11.907Z,86.30
2017-10-06T07:04:40.240Z,84.90
2017-10-06T07:07:08.549Z,84.80
2017-10-06T07:09:36.879Z,84.50
2017-10-06T07:12:05.194Z,84.30
2017-10-06T07:14:33.563Z,84.40
2017-10-06T07:17:01.872Z,84.10
2017-10-06T07:19:30.237Z,84.00
2017-10-06T07:21:58.572Z,83.90
2017-10-06T07:24:27.874Z,83.80
2017-10-06T07:26:56.211Z,83.80
2017-10-06T07:29:25.511Z,83.90
2017-10-06T07:31:53.852Z,84.20
2017-10-06T07:34:22.213Z,84.40
2017-10-06T07:36:50.555Z,84.80
2017-10-06T07:39:19.836Z,85.00
2017-10-06T07:41:48.156Z,85.40
2017-10-06T07:44:16.491Z,85.40
2017-10-06T07:46:44.805Z,85.00
2017-10-06T07:49:14.094Z,85.00
2017-10-06T07:51:42.412Z,85.30
2017-10-06T07:54:10.747Z,85.00
2017-10-06T07:56:40.083Z,84.30
2017-10-06T07:59:09.487Z,84.00
2017-10-06T08:01:38.964Z,83.40
2017-10-06T08:04:08.900Z,82.90
2017-10-06T08:06:37.225Z,82.70
2017-10-06T08:09:05.852Z,83.00
2017-10-06T08:11:35.228Z,83.10
2017-10-06T08:14:03.587Z,82.90
2017-10-06T08:16:31.921Z,82.70
2017-10-06T08:19:00.231Z,82.20
2017-10-06T08:21:28.561Z,81.80
2017-10-06T08:23:56.896Z,81.50
2017-10-06T08:26:25.227Z,81.70
2017-10-06T08:28:53.571Z,82.10
2017-10-06T08:31:21.921Z,82.00
2017-10-06T08:33:50.231Z,81.40
2017-10-06T08:36:18.571Z,80.70
2017-10-06T08:38:46.941Z,80.60
2017-10-06T08:41:15.254Z,80.60
2017-10-06T08:43:43.583Z,80.60
2017-10-06T08:46:11.900Z,80.10
2017-10-06T08:48:40.254Z,79.30
2017-10-06T08:51:08.566Z,79.10
2017-10-06T08:53:37.743Z,78.70
2017-10-06T08:56:06.053Z,78.20
2017-10-06T08:58:35.728Z,78.30
2017-10-06T09:01:05.248Z,78.50
2017-10-06T09:03:33.632Z,78.80
2017-10-06T09:06:01.948Z,79.10
2017-10-06T09:08:30.256Z,78.60
2017-10-06T09:10:58.655Z,77.60
2017-10-06T09:13:26.963Z,77.20
2017-10-06T09:15:55.368Z,77.20
2017-10-06T09:18:23.708Z,76.80
2017-10-06T09:20:52.071Z,77.20
2017-10-06T09:23:20.383Z,77.60
2017-10-06T09:25:48.769Z,78.00
2017-10-06T09:28:17.099Z,78.20
2017-10-06T09:30:45.799Z,77.80
2017-10-06T09:33:14.323Z,77.80
2017-10-06T09:35:43.655Z,78.10
2017-10-06T09:38:12.008Z,78.50
2017-10-06T09:40:40.324Z,78.50
2017-10-06T09:43:08.654Z,79.20
2017-10-06T09:45:37.167Z,78.70
2017-10-06T09:48:05.511Z,78.10
2017-10-06T09:50:34.867Z,76.40
2017-10-06T09:53:03.842Z,75.60
2017-10-06T09:55:32.204Z,73.80
2017-10-06T09:58:00.918Z,71.80
2017-10-06T10:00:29.436Z,72.00
2017-10-06T10:02:57.748Z,71.60
2017-10-06T10:05:26.164Z,71.70
2017-10-06T10:07:54.484Z,72.70
2017-10-06T10:10:22.872Z,73.00
2017-10-06T10:12:51.187Z,72.60
2017-10-06T10:15:19.579Z,73.10
2017-10-06T10:17:47.895Z,73.30
2017-10-06T10:20:16.287Z,73.80
2017-10-06T10:22:44.599Z,74.10
2017-10-06T10:25:14.024Z,74.40
2017-10-06T10:27:43.639Z,74.50
2017-10-06T10:30:12.065Z,74.80
2017-10-06T10:32:40.403Z,75.30
2017-10-06T10:35:08.743Z,75.40
2017-10-06T10:37:37.092Z,75.50
2017-10-06T10:40:05.425Z,75.10
2017-10-06T10:42:35.120Z,73.70
2017-10-06T10:45:03.492Z,72.60
2017-10-06T10:47:31.803Z,73.40
2017-10-06T10:50:00.200Z,73.70
2017-10-06T10:52:28.599Z,74.10
2017-10-06T10:54:56.947Z,74.40
2017-10-06T10:57:25.572Z,73.70
2017-10-06T10:59:54.095Z,73.70
2017-10-06T11:02:22.463Z,73.10
2017-10-06T11:04:50.809Z,73.00
2017-10-06T11:07:19.275Z,72.20
2017-10-06T11:09:47.603Z,71.80
2017-10-06T11:12:15.917Z,71.50
2017-10-06T11:14:44.260Z,70.40
2017-10-06T11:17:13.123Z,70.10
2017-10-06T11:19:41.966Z,69.30
2017-10-06T11:22:10.299Z,68.50
2017-10-06T11:24:38.608Z,68.70
2017-10-06T11:27:06.944Z,69.20
2017-10-06T11:29:35.255Z,68.00
2017-10-06T11:32:03.592Z,67.20
2017-10-06T11:34:31.970Z,65.20
2017-10-06T11:37:00.363Z,64.30
2017-10-06T11:39:29.651Z,63.40
2017-10-06T11:41:58.015Z,63.00
2017-10-06T11:44:26.445Z,63.40
2017-10-06T11:46:54.772Z,64.10
2017-10-06T11:49:24.224Z,64.10
2017-10-06T11:51:52.528Z,65.40
2017-10-06T11:54:20.871Z,65.70
2017-10-06T11:56:49.175Z,66.20
2017-10-06T11:59:18.451Z,67.30
2017-10-06T12:01:46.760Z,68.20
2017-10-06T12:04:15.092Z,68.10
2017-10-06T12:06:43.827Z,68.10
2017-10-06T12:09:13.167Z,68.00
2017-10-06T12:11:42.287Z,66.10
2017-10-06T12:14:12.276Z,64.30
2017-10-06T12:16:41.457Z,62.40
2017-10-06T12:19:09.791Z,60.60
2017-10-06T12:21:38.164Z,59.90
2017-10-06T12:24:06.544Z,60.90
2017-10-06T12:26:34.879Z,61.40
2017-10-06T12:29:04.240Z,62.00
2017-10-06T12:31:33.239Z,61.50
2017-10-06T12:34:01.617Z,61.00
2017-10-06T12:36:29.950Z,58.90
2017-10-06T12:38:58.336Z,58.50
2017-10-06T12:41:26.665Z,58.90
2017-10-06T12:43:55.048Z,59.30
2017-10-06T12:46:23.383Z,60.10
2017-10-06T12:48:51.752Z,61.20
2017-10-06T12:51:20.080Z,62.10
2017-10-06T12:53:48.474Z,61.10
2017-10-06T12:56:16.019Z,61.10
2017-10-06T12:58:44.363Z,62.40
2017-10-06T13:01:13.936Z,62.70
2017-10-06T13:03:43.455Z,62.00
2017-10-06T13:06:12.771Z,62.70
2017-10-06T13:08:42.123Z,62.70
2017-10-06T13:11:10.437Z,62.90
2017-10-06T13:13:38.836Z,62.40
2017-10-06T13:16:07.156Z,62.70
2017-10-06T13:18:35.567Z,61.60
2017-10-06T13:21:03.935Z,61.60
2017-10-06T13:23:32.312Z,59.10
2017-10-06T13:26:01.346Z,58.40
2017-10-06T13:28:29.727Z,58.10
2017-10-06T13:30:58.067Z,58.50
2017-10-06T13:33:26.443Z,58.70
2017-10-06T13:35:54.792Z,59.40
2017-10-06T13:38:23.148Z,59.70
2017-10-06T13:40:51.468Z,60.40
2017-10-06T13:43:19.063Z,60.30
2017-10-06T13:45:47.383Z,62.70
2017-10-06T13:48:15.756Z,63.10
2017-10-06T13:50:43.308Z,63.10
2017-10-06T13:53:12.880Z,63.70
2017-10-06T13:55:42.285Z,64.50
2017-10-06T13:58:10.595Z,63.00
2017-10-06T14:00:39.027Z,61.40
2017-10-06T14:03:07.336Z,60.00
2017-10-06T14:05:35.736Z,59.60
2017-10-06T14:08:04.944Z,59.70
2017-10-06T14:10:34.407Z,60.40
2017-10-06T14:13:03.302Z,61.40
2017-10-06T14:15:31.715Z,61.90
2017-10-06T14:18:00.024Z,62.80
2017-10-06T14:20:28.336Z,63.70
2017-10-06T14:22:56.708Z,64.10
2017-10-06T14:25:25.012Z,63.50
2017-10-06T14:27:53.412Z,63.10
2017-10-06T14:30:21.723Z,63.90
2017-10-06T14:32:50.128Z,64.40
2017-10-06T14:35:18.447Z,64.40
2017-10-06T14:37:46.849Z,64.80
2017-10-06T14:40:15.166Z,65.60
2017-10-06T14:42:43.525Z,66.10
2017-10-06T14:45:12.801Z,67.00
2017-10-06T14:47:42.124Z,68.10
2017-10-06T14:50:10.454Z,68.80
2017-10-06T14:52:38.780Z,69.70
2017-10-06T14:55:07.148Z,70.90
2017-10-06T14:57:35.483Z,72.20
2017-10-06T15:00:04.460Z,74.20
2017-10-06T15:02:33.453Z,74.00
2017-10-06T15:05:01.845Z,74.30
2017-10-06T15:07:30.620Z,74.60
2017-10-06T15:09:58.939Z,74.90
2017-10-06T15:12:27.276Z,75.50
2017-10-06T15:14:55.643Z,75.90
2017-10-06T15:17:23.976Z,75.90
2017-10-06T15:19:52.349Z,75.90
2017-10-06T15:22:20.713Z,76.10
2017-10-06T15:24:49.081Z,75.80
2017-10-06T15:27:16.675Z,75.80
2017-10-06T15:29:44.996Z,76.00
2017-10-06T15:32:13.313Z,76.50
2017-10-06T15:34:42.436Z,77.00
2017-10-06T15:37:11.535Z,77.30
2017-10-06T15:39:39.867Z,78.00
2017-10-06T15:42:08.175Z,78.50
2017-10-06T15:44:36.532Z,78.80
2017-10-06T15:47:04.846Z,79.20
2017-10-06T15:49:33.884Z,79.70
2017-10-06T15:52:02.203Z,80.10
2017-10-06T15:54:30.551Z,80.60
2017-10-06T15:56:58.895Z,81.10
2017-10-06T15:59:27.248Z,81.50
2017-10-06T16:01:55.587Z,81.90
2017-10-06T16:04:23.895Z,82.10
2017-10-06T16:06:52.255Z,81.60
2017-10-06T16:09:20.569Z,81.60
2017-10-06T16:11:48.895Z,81.80
2017-10-06T16:14:17.227Z,82.00
2017-10-06T16:16:45.547Z,81.80
2017-10-06T16:19:13.908Z,82.00
2017-10-06T16:21:43.180Z,82.40
2017-10-06T16:24:12.371Z,83.00
2017-10-06T16:26:42.268Z,83.60
2017-10-06T16:29:10.600Z,84.00
2017-10-06T16:31:38.939Z,84.50
2017-10-06T16:34:07.283Z,84.90
2017-10-06T16:36:35.619Z,85.80
2017-10-06T16:39:05.332Z,85.40
2017-10-06T16:41:33.668Z,85.80
2017-10-06T16:44:03.952Z,85.70
2017-10-06T16:46:32.335Z,85.60
2017-10-06T16:49:01.502Z,85.80
2017-10-06T16:51:29.836Z,86.10
2017-10-06T16:53:58.179Z,86.40
2017-10-06T16:56:26.488Z,86.70
2017-10-06T16:58:54.833Z,86.90
2017-10-06T17:01:23.143Z,87.20
2017-10-06T17:03:51.479Z,87.40
2017-10-06T17:06:19.799Z,87.80
2017-10-06T17:08:48.144Z,87.70
2017-10-06T17:11:16.457Z,87.80
2017-10-06T17:13:44.008Z,87.80
2017-10-06T17:16:13.670Z,87.10
2017-10-06T17:18:41.986Z,87.20
2017-10-06T17:21:10.327Z,87.20
2017-10-06T17:23:38.656Z,87.00
2017-10-06T17:26:06.991Z,86.90
2017-10-06T17:28:35.328Z,86.50
2017-10-06T17:31:03.679Z,86.20
2017-10-06T17:33:31.992Z,86.30
2017-10-06T17:36:00.304Z,86.40
2017-10-06T17:38:28.635Z,86.70
2017-10-06T17:40:56.947Z,86.80
2017-10-06T17:43:25.292Z,86.90
2017-10-06T17:45:53.604Z,87.10
2017-10-06T17:48:21.936Z,87.20
2017-10-06T17:50:50.247Z,87.40
2017-10-06T17:53:18.612Z,88.40
2017-10-06T17:55:46.923Z,87.70
2017-10-06T17:58:15.281Z,88.00
2017-10-06T18:00:43.411Z,87.80
2017-10-06T18:03:12.666Z,88.20
2017-10-06T18:05:41.032Z,88.10
2017-10-06T18:08:09.348Z,88.00
2017-10-06T18:10:37.692Z,87.20
2017-10-06T18:13:06.049Z,87.00
2017-10-06T18:15:35.539Z,87.00
2017-10-06T18:18:04.885Z,87.00
2017-10-06T18:20:34.120Z,86.80
2017-10-06T18:23:03.174Z,86.10
2017-10-06T18:25:31.531Z,86.40
2017-10-06T18:27:59.852Z,86.20
2017-10-06T18:30:28.183Z,86.20
2017-10-06T18:32:56.600Z,85.60
2017-10-06T18:35:24.152Z,85.60
2017-10-06T18:37:52.599Z,85.70
2017-10-06T18:40:20.924Z,85.80
2017-10-06T18:42:49.316Z,85.70
2017-10-06T18:45:17.667Z,85.80
2017-10-06T18:47:47.055Z,85.60
2017-10-06T18:50:14.602Z,85.60
2017-10-06T18:52:44.264Z,85.50
2017-10-06T18:55:13.071Z,85.00
2017-10-06T18:57:42.579Z,85.00
2017-10-06T19:00:11.718Z,85.20
2017-10-06T19:02:40.106Z,85.60
2017-10-06T19:05:08.440Z,85.90
2017-10-06T19:07:36.864Z,85.90
2017-10-06T19:10:05.196Z,86.00
2017-10-06T19:12:33.539Z,86.10
2017-10-06T19:15:01.884Z,86.20
2017-10-06T19:17:30.223Z,86.40
2017-10-06T19:19:58.589Z,86.50
2017-10-06T19:22:26.137Z,86.30
2017-10-06T19:24:54.452Z,86.50
2017-10-06T19:27:22.861Z,86.50
2017-10-06T19:29:51.175Z,86.60
2017-10-06T19:32:19.567Z,86.30
2017-10-06T19:34:47.951Z,85.70
2017-10-06T19:37:16.299Z,85.60
2017-10-06T19:39:44.655Z,85.60
2017-10-06T19:42:13.700Z,85.80
2017-10-06T19:44:42.079Z,85.80
2017-10-06T19:47:10.431Z,85.90
2017-10-06T19:49:38.748Z,86.10
2017-10-06T19:52:07.068Z,86.20
2017-10-06T19:54:35.489Z,85.70
2017-10-06T19:57:04.715Z,85.70
2017-10-06T19:59:33.771Z,85.50
2017-10-06T20:02:02.091Z,85.60
2017-10-06T20:04:30.457Z,85.70
2017-10-06T20:06:58.785Z,85.80
2017-10-06T20:09:27.169Z,86.20
2017-10-06T20:11:54.719Z,86.10
2017-10-06T20:14:23.057Z,86.70
2017-10-06T20:16:51.368Z,86.70
2017-10-06T20:19:19.719Z,86.80
2017-10-06T20:21:48.032Z,86.90
2017-10-06T20:24:16.380Z,86.90
2017-10-06T20:26:44.716Z,86.30
2017-10-06T20:29:13.087Z,86.70
2017-10-06T20:31:42.042Z,86.50
2017-10-06T20:34:10.435Z,86.20
2017-10-06T20:36:38.849Z,86.30
2017-10-06T20:39:07.175Z,86.00
2017-10-06T20:41:34.945Z,86.00
2017-10-06T20:44:03.300Z,86.10
2017-10-06T20:46:31.619Z,86.20
2017-10-06T20:48:59.951Z,86.40
2017-10-06T20:51:28.339Z,86.20
2017-10-06T20:53:56.672Z,86.40
2017-10-06T20:56:25.054Z,86.50
2017-10-06T20:58:53.405Z,86.50
2017-10-06T21:01:21.752Z,86.60
2017-10-06T21:03:50.097Z,86.80
2017-10-06T21:06:18.471Z,87.20
2017-10-06T21:08:46.812Z,87.40
2017-10-06T21:11:15.152Z,87.50
2017-10-06T21:13:43.812Z,87.60
2017-10-06T21:16:13.054Z,87.70
2017-10-06T21:18:42.340Z,87.80
2017-10-06T21:21:11.895Z,87.90
2017-10-06T21:23:40.203Z,87.90
2017-10-06T21:26:08.597Z,87.90
2017-10-06T21:28:36.916Z,88.00
2017-10-06T21:31:04.880Z,88.00
2017-10-06T21:33:33.296Z,88.20
2017-10-06T21:36:01.711Z,88.30
2017-10-06T21:38:30.043Z,88.40
2017-10-06T21:40:58.457Z,88.40
2017-10-06T21:43:26.776Z,88.50
2017-10-06T21:45:55.120Z,88.60
2017-10-06T21:48:23.469Z,88.60
2017-10-06T21:50:51.826Z,88.70
2017-10-06T21:53:20.167Z,88.80
2017-10-06T21:55:48.532Z,89.00
2017-10-06T21:58:16.887Z,89.00
2017-10-06T22:00:45.336Z,89.00
2017-10-06T22:03:13.670Z,89.00
2017-10-06T22:05:42.032Z,89.00
2017-10-06T22:08:10.387Z,89.10
2017-10-06T22:10:38.739Z,89.10
2017-10-06T22:13:07.060Z,89.60
2017-10-06T22:15:35.473Z,89.20
2017-10-06T22:18:05.264Z,89.10
2017-10-06T22:20:33.630Z,89.30
2017-10-06T22:23:01.945Z,89.30
2017-10-06T22:25:30.316Z,89.30
2017-10-06T22:27:58.632Z,89.50
2017-10-06T22:30:27.036Z,89.50
2017-10-06T22:32:55.345Z,89.40
2017-10-06T22:35:23.748Z,89.60
2017-10-06T22:37:52.067Z,89.60
2017-10-06T22:40:20.408Z,89.60
2017-10-06T22:42:48.773Z,89.60
2017-10-06T22:45:17.091Z,89.50
2017-10-06T22:47:45.492Z,89.60
2017-10-06T22:50:13.803Z,89.60
2017-10-06T22:52:43.558Z,89.60
2017-10-06T22:55:12.915Z,89.80
2017-10-06T22:57:42.351Z,89.80
2017-10-06T23:00:10.663Z,89.80
2017-10-06T23:02:39.688Z,89.60
2017-10-06T23:05:08.011Z,89.60
2017-10-06T23:07:36.855Z,89.80
2017-10-06T23:10:04.451Z,89.80
2017-10-06T23:12:33.878Z,89.80
2017-10-06T23:15:02.211Z,89.80
2017-10-06T23:17:31.054Z,89.70
2017-10-06T23:19:59.378Z,89.70
2017-10-06T23:22:27.727Z,89.70
2017-10-06T23:24:56.063Z,89.70
2017-10-06T23:27:24.438Z,89.60
2017-10-06T23:29:52.786Z,89.60
2017-10-06T23:32:21.134Z,89.60
2017-10-06T23:34:49.447Z,89.60
2017-10-06T23:37:17.875Z,89.40
2017-10-06T23:39:46.175Z,89.40
2017-10-06T23:42:14.571Z,89.50
2017-10-06T23:44:43.575Z,90.10
2017-10-06T23:47:11.996Z,89.40
2017-10-06T23:49:40.298Z,89.60
2017-10-06T23:52:08.719Z,89.60
2017-10-06T23:54:37.029Z,89.70
2017-10-06T23:57:05.399Z,89.70
2017-10-06T23:59:33.738Z,89.70
